createdAt,value
2023-02-15T00:02:03.323Z,102444.53
2023-02-15T00:04:47.566Z,102441.50
2023-02-15T00:07:16.390Z,102434.19
2023-02-15T00:09:43.464Z,102431.41
2023-02-15T00:12:11.257Z,102428.59
2023-02-15T00:14:38.545Z,102419.63
2023-02-15T00:17:05.879Z,102423.28
2023-02-15T00:19:32.891Z,102421.28
2023-02-15T00:21:59.881Z,102413.44
2023-02-15T00:24:26.858Z,102406.97
2023-02-15T00:26:54.042Z,102400.28
2023-02-15T00:29:21.703Z,102395.22
2023-02-15T00:31:49.779Z,102392.97
2023-02-15T00:34:19.217Z,102387.66
2023-02-15T00:36:46.434Z,102369.41
2023-02-15T00:39:13.726Z,102373.06
2023-02-15T00:41:40.976Z,102370.00
2023-02-15T00:44:08.104Z,102368.31
2023-02-15T00:46:35.859Z,102376.13
2023-02-15T00:49:03.540Z,102372.22
2023-02-15T00:51:30.615Z,102364.06
2023-02-15T00:53:57.820Z,102361.56
2023-02-15T00:56:25.197Z,102364.06
2023-02-15T00:58:52.347Z,102359.59
2023-02-15T01:01:22.083Z,102355.09
2023-02-15T01:03:49.193Z,102360.44
2023-02-15T01:06:17.036Z,102358.75
2023-02-15T01:08:45.780Z,102364.34
2023-02-15T01:11:14.468Z,102366.31
2023-02-15T01:13:41.991Z,102360.94
2023-02-15T01:16:09.424Z,102357.59
2023-02-15T01:18:37.132Z,102354.25
2023-02-15T01:21:09.061Z,102348.91
2023-02-15T01:23:36.148Z,102339.94
2023-02-15T01:26:03.909Z,102338.00
2023-02-15T01:28:31.043Z,102339.94
2023-02-15T01:30:58.014Z,102332.66
2023-02-15T01:33:25.098Z,102334.91
2023-02-15T01:35:57.918Z,102323.16
2023-02-15T01:38:24.888Z,102318.66
2023-02-15T01:40:52.743Z,102316.09
2023-02-15T01:43:19.870Z,102305.75
2023-02-15T01:45:48.770Z,102304.34
2023-02-15T01:48:17.093Z,102302.38
2023-02-15T01:50:45.860Z,102292.28
2023-02-15T01:53:15.825Z,102288.66
2023-02-15T01:55:48.871Z,102288.66
2023-02-15T01:58:16.118Z,102283.03
2023-02-15T02:00:43.646Z,102285.84
2023-02-15T02:03:10.584Z,102284.44
2023-02-15T02:05:39.357Z,102273.22
2023-02-15T02:08:06.468Z,102272.94
2023-02-15T02:10:33.345Z,102273.22
2023-02-15T02:13:02.673Z,102265.66
2023-02-15T02:15:32.607Z,102263.13
2023-02-15T02:18:00.830Z,102268.72
2023-02-15T02:20:30.667Z,102256.69
2023-02-15T02:23:00.653Z,102261.19
2023-02-15T02:25:30.585Z,102257.53
2023-02-15T02:28:00.619Z,102249.16
2023-02-15T02:30:30.681Z,102250.25
2023-02-15T02:33:01.039Z,102244.91
2023-02-15T02:35:31.743Z,102241.84
2023-02-15T02:38:02.396Z,102242.09
2023-02-15T02:40:32.551Z,102246.03
2023-02-15T02:43:02.921Z,102246.84
2023-02-15T02:45:34.046Z,102242.59
2023-02-15T02:48:05.038Z,102255.50
2023-02-15T02:50:32.177Z,102253.56
2023-02-15T02:52:59.987Z,102251.84
2023-02-15T02:55:28.234Z,102245.41
2023-02-15T02:57:58.244Z,102245.41
2023-02-15T03:00:27.357Z,102249.31
2023-02-15T03:02:59.575Z,102245.41
2023-02-15T03:05:28.497Z,102244.81
2023-02-15T03:07:58.245Z,102240.91
2023-02-15T03:10:26.017Z,102238.41
2023-02-15T03:12:53.593Z,102238.41
2023-02-15T03:15:24.391Z,102231.09
2023-02-15T03:17:56.490Z,102235.00
2023-02-15T03:20:26.633Z,102237.53
2023-02-15T03:22:56.402Z,102225.50
2023-02-15T03:25:23.760Z,102220.16
2023-02-15T03:27:52.483Z,102218.22
2023-02-15T03:30:19.985Z,102214.00
2023-02-15T03:32:48.985Z,102210.91
2023-02-15T03:35:15.993Z,102204.75
2023-02-15T03:37:45.755Z,102209.50
2023-02-15T03:40:20.727Z,102197.22
2023-02-15T03:42:50.399Z,102193.81
2023-02-15T03:45:19.134Z,102189.91
2023-02-15T03:47:47.832Z,102194.91
2023-02-15T03:50:20.799Z,102192.97
2023-02-15T03:52:47.770Z,102179.81
2023-02-15T03:55:14.664Z,102179.81
2023-02-15T03:57:44.778Z,102182.88
2023-02-15T04:00:18.404Z,102178.13
2023-02-15T04:02:51.227Z,102175.63
2023-02-15T04:05:18.393Z,102170.28
2023-02-15T04:07:45.309Z,102164.69
2023-02-15T04:10:15.192Z,102159.06
2023-02-15T04:12:42.158Z,102167.47
2023-02-15T04:15:16.151Z,102166.63
2023-02-15T04:17:42.972Z,102169.69
2023-02-15T04:20:13.108Z,102167.47
2023-02-15T04:22:43.108Z,102162.41
2023-02-15T04:25:12.720Z,102155.69
2023-02-15T04:27:40.308Z,102154.84
2023-02-15T04:30:07.794Z,102159.03
2023-02-15T04:32:35.440Z,102157.31
2023-02-15T04:35:02.419Z,102156.47
2023-02-15T04:37:29.227Z,102158.19
2023-02-15T04:39:56.145Z,102153.97
2023-02-15T04:42:23.140Z,102150.31
2023-02-15T04:44:50.068Z,102152.28
2023-02-15T04:47:16.995Z,102156.16
2023-02-15T04:49:43.850Z,102153.38
2023-02-15T04:52:11.018Z,102155.06
2023-02-15T04:54:39.391Z,102153.38
2023-02-15T04:57:06.782Z,102152.28
2023-02-15T04:59:33.748Z,102148.63
2023-02-15T05:02:00.712Z,102143.03
2023-02-15T05:04:27.686Z,102137.44
2023-02-15T05:06:54.775Z,102143.28
2023-02-15T05:09:21.676Z,102134.88
2023-02-15T05:11:48.552Z,102142.19
2023-02-15T05:14:15.594Z,102133.22
2023-02-15T05:16:42.549Z,102129.28
2023-02-15T05:19:09.606Z,102127.88
2023-02-15T05:21:36.558Z,102122.28
2023-02-15T05:24:23.593Z,102121.44
2023-02-15T05:26:53.674Z,102118.66
2023-02-15T05:29:20.572Z,102123.13
2023-02-15T05:31:48.804Z,102120.03
2023-02-15T05:34:15.921Z,102120.06
2023-02-15T05:36:42.853Z,102119.19
2023-02-15T05:39:09.718Z,102119.75
2023-02-15T05:41:36.710Z,102118.06
2023-02-15T05:44:03.759Z,102114.16
2023-02-15T05:46:30.806Z,102111.63
2023-02-15T05:48:58.151Z,102117.25
2023-02-15T05:51:24.963Z,102117.50
2023-02-15T05:53:51.840Z,102117.50
2023-02-15T05:56:18.717Z,102116.38
2023-02-15T05:58:45.758Z,102117.50
2023-02-15T06:01:14.227Z,102110.19
2023-02-15T06:03:41.759Z,102113.84
2023-02-15T06:06:09.209Z,102110.44
2023-02-15T06:08:36.638Z,102104.84
2023-02-15T06:11:04.003Z,102104.84
2023-02-15T06:13:31.215Z,102111.59
2023-02-15T06:15:58.170Z,102114.09
2023-02-15T06:18:25.042Z,102116.34
2023-02-15T06:20:51.873Z,102112.69
2023-02-15T06:23:18.955Z,102104.03
2023-02-15T06:25:46.831Z,102107.94
2023-02-15T06:28:13.939Z,102103.44
2023-02-15T06:30:40.937Z,102104.56
2023-02-15T06:33:07.822Z,102103.44
2023-02-15T06:35:34.873Z,102099.81
2023-02-15T06:38:01.744Z,102105.69
2023-02-15T06:40:28.639Z,102105.69
2023-02-15T06:42:55.545Z,102101.75
2023-02-15T06:45:22.475Z,102105.94
2023-02-15T06:47:49.451Z,102104.00
2023-02-15T06:50:16.483Z,102094.50
2023-02-15T06:52:43.606Z,102095.84
2023-02-15T06:55:10.443Z,102105.94
2023-02-15T06:57:37.759Z,102101.44
2023-02-15T07:00:06.253Z,102108.72
2023-02-15T07:02:33.362Z,102110.69
2023-02-15T07:05:00.694Z,102124.66
2023-02-15T07:07:27.681Z,102117.38
2023-02-15T07:09:54.567Z,102115.69
2023-02-15T07:12:24.473Z,102115.13
2023-02-15T07:14:51.464Z,102113.16
2023-02-15T07:17:35.080Z,102116.81
2023-02-15T07:20:04.472Z,102123.25
2023-02-15T07:22:31.334Z,102124.06
2023-02-15T07:24:58.553Z,102127.72
2023-02-15T07:27:25.473Z,102126.06
2023-02-15T07:29:52.331Z,102124.34
2023-02-15T07:32:19.640Z,102122.66
2023-02-15T07:34:46.644Z,102126.56
2023-02-15T07:37:13.518Z,102125.72
2023-02-15T07:39:40.542Z,102128.50
2023-02-15T07:42:07.524Z,102119.25
2023-02-15T07:44:34.634Z,102125.72
2023-02-15T07:47:01.689Z,102121.25
2023-02-15T07:49:29.220Z,102136.91
2023-02-15T07:51:56.182Z,102136.91
2023-02-15T07:54:23.355Z,102134.09
2023-02-15T07:56:50.248Z,102136.03
2023-02-15T07:59:17.220Z,102131.00
2023-02-15T08:01:44.163Z,102137.19
2023-02-15T08:04:12.585Z,102134.03
2023-02-15T08:06:39.857Z,102144.72
2023-02-15T08:09:08.045Z,102137.44
2023-02-15T08:11:36.603Z,102151.66
2023-02-15T08:14:06.607Z,102142.44
2023-02-15T08:16:35.232Z,102152.50
2023-02-15T08:19:05.097Z,102148.00
2023-02-15T08:21:32.739Z,102146.06
2023-02-15T08:23:59.812Z,102138.53
2023-02-15T08:26:28.627Z,102131.25
2023-02-15T08:28:56.075Z,102143.28
2023-02-15T08:31:23.537Z,102139.91
2023-02-15T08:33:52.130Z,102138.22
2023-02-15T08:36:20.928Z,102135.72
2023-02-15T08:38:48.038Z,102137.63
2023-02-15T08:41:16.580Z,102134.31
2023-02-15T08:43:44.258Z,102123.38
2023-02-15T08:46:12.617Z,102115.25
2023-02-15T08:48:40.319Z,102116.94
2023-02-15T08:51:08.378Z,102122.81
2023-02-15T08:53:35.731Z,102121.69
2023-02-15T08:56:03.424Z,102120.84
2023-02-15T08:58:32.017Z,102120.28
2023-02-15T09:00:59.432Z,102121.69
2023-02-15T09:03:26.952Z,102117.47
2023-02-15T09:06:00.270Z,102114.69
2023-02-15T09:08:27.919Z,102119.19
2023-02-15T09:10:55.311Z,102117.47
2023-02-15T09:13:22.693Z,102123.06
2023-02-15T09:15:49.932Z,102128.91
2023-02-15T09:18:18.609Z,102130.88
2023-02-15T09:20:46.064Z,102124.19
2023-02-15T09:23:25.506Z,102125.88
2023-02-15T09:25:53.709Z,102131.72
2023-02-15T09:28:20.610Z,102124.44
2023-02-15T09:30:48.088Z,102131.72
2023-02-15T09:33:15.125Z,102125.28
2023-02-15T09:35:42.292Z,102133.41
2023-02-15T09:38:10.527Z,102120.53
2023-02-15T09:40:42.310Z,102123.06
2023-02-15T09:43:19.358Z,102113.25
2023-02-15T09:45:49.679Z,102116.09
2023-02-15T09:48:19.881Z,102115.53
2023-02-15T09:50:50.090Z,102120.53
2023-02-15T09:53:18.321Z,102121.97
2023-02-15T09:55:48.404Z,102116.63
2023-02-15T09:58:18.514Z,102115.78
2023-02-15T10:00:48.601Z,102116.63
2023-02-15T10:03:16.007Z,102127.81
2023-02-15T10:05:43.287Z,102114.69
2023-02-15T10:08:13.744Z,102116.63
2023-02-15T10:10:46.266Z,102112.75
2023-02-15T10:13:16.704Z,102100.09
2023-02-15T10:15:53.492Z,102095.38
2023-02-15T10:18:24.221Z,102085.88
2023-02-15T10:20:57.181Z,102086.97
2023-02-15T10:23:33.418Z,102102.91
2023-02-15T10:26:04.228Z,102100.44
2023-02-15T10:28:39.292Z,102106.03
2023-02-15T10:31:14.309Z,102101.56
2023-02-15T10:33:42.623Z,102095.97
2023-02-15T10:36:19.747Z,102103.25
2023-02-15T10:38:48.456Z,102106.59
2023-02-15T10:41:15.950Z,102109.66
2023-02-15T10:43:50.767Z,102110.25
2023-02-15T10:46:18.465Z,102111.09
2023-02-15T10:48:48.617Z,102115.84
2023-02-15T10:51:21.572Z,102111.94
2023-02-15T10:53:50.055Z,102106.59
2023-02-15T10:56:21.248Z,102099.06
2023-02-15T10:58:49.040Z,102099.06
2023-02-15T11:01:21.262Z,102093.22
2023-02-15T11:03:49.900Z,102094.88
2023-02-15T11:06:18.812Z,102088.47
2023-02-15T11:08:47.935Z,102085.41
2023-02-15T11:11:21.927Z,102085.41
2023-02-15T11:13:51.770Z,102081.25
2023-02-15T11:16:21.520Z,102087.09
2023-02-15T11:18:52.847Z,102079.31
2023-02-15T11:21:23.024Z,102073.72
2023-02-15T11:23:54.123Z,102069.53
2023-02-15T11:26:24.410Z,102055.00
2023-02-15T11:28:56.733Z,102055.00
2023-02-15T11:31:24.652Z,102045.25
2023-02-15T11:33:55.368Z,102042.16
2023-02-15T11:36:26.456Z,102040.81
2023-02-15T11:38:58.348Z,102034.38
2023-02-15T11:41:29.014Z,102036.31
2023-02-15T11:43:59.665Z,102027.69
2023-02-15T11:46:26.980Z,102030.19
2023-02-15T11:48:54.441Z,102017.94
2023-02-15T11:51:24.320Z,102021.00
2023-02-15T11:53:51.613Z,102041.16
2023-02-15T11:56:20.181Z,102042.88
2023-02-15T11:58:50.929Z,102047.03
2023-02-15T12:01:21.893Z,102046.47
2023-02-15T12:03:50.595Z,102034.72
2023-02-15T12:06:23.234Z,102039.22
2023-02-15T12:08:54.185Z,102029.72
2023-02-15T12:11:27.225Z,102032.53
2023-02-15T12:13:57.852Z,102026.38
2023-02-15T12:16:25.451Z,102013.50
2023-02-15T12:18:54.278Z,102008.50
2023-02-15T12:21:24.339Z,102004.00
2023-02-15T12:23:54.123Z,102001.19
2023-02-15T12:26:24.189Z,102004.84
2023-02-15T12:28:53.421Z,101996.16
2023-02-15T12:31:23.386Z,101992.25
2023-02-15T12:33:52.462Z,101987.78
2023-02-15T12:36:21.784Z,101986.16
2023-02-15T12:38:51.861Z,101986.97
2023-02-15T12:41:22.123Z,101988.41
2023-02-15T12:44:04.060Z,101988.97
2023-02-15T12:46:37.979Z,101985.91
2023-02-15T12:49:09.314Z,101985.34
2023-02-15T12:51:43.160Z,101987.34
2023-02-15T12:54:23.442Z,101980.09
2023-02-15T12:56:51.087Z,101981.19
2023-02-15T12:59:23.109Z,101975.38
2023-02-15T13:01:52.821Z,101967.75
2023-02-15T13:04:20.370Z,101966.16
2023-02-15T13:06:50.214Z,101974.19
2023-02-15T13:09:19.657Z,101961.91
2023-02-15T13:11:48.153Z,101956.31
2023-02-15T13:14:18.616Z,101958.84
2023-02-15T13:16:47.809Z,101954.34
2023-02-15T13:19:18.147Z,101952.72
2023-02-15T13:21:46.666Z,101954.41
2023-02-15T13:24:17.585Z,101952.19
2023-02-15T13:26:46.408Z,101936.53
2023-02-15T13:29:18.510Z,101934.56
2023-02-15T13:31:46.160Z,101935.13
2023-02-15T13:34:15.159Z,101929.78
2023-02-15T13:36:44.805Z,101924.78
2023-02-15T13:39:14.893Z,101925.03
2023-02-15T13:41:45.180Z,101928.41
2023-02-15T13:44:15.830Z,101917.22
2023-02-15T13:46:44.640Z,101913.31
2023-02-15T13:49:20.456Z,101916.41
2023-02-15T13:51:48.019Z,101918.38
2023-02-15T13:54:16.778Z,101913.31
2023-02-15T13:56:49.824Z,101908.56
2023-02-15T13:59:20.621Z,101907.44
2023-02-15T14:01:55.033Z,101912.47
2023-02-15T14:04:25.418Z,101922.00
2023-02-15T14:06:57.094Z,101922.56
2023-02-15T14:09:25.663Z,101920.56
2023-02-15T14:11:55.980Z,101911.63
2023-02-15T14:14:26.419Z,101917.22
2023-02-15T14:17:06.659Z,101911.91
2023-02-15T14:19:38.386Z,101903.78
2023-02-15T14:22:10.660Z,101909.66
2023-02-15T14:24:44.695Z,101901.81
2023-02-15T14:27:14.924Z,101909.66
2023-02-15T14:29:42.581Z,101909.66
2023-02-15T14:32:13.506Z,101902.97
2023-02-15T14:34:43.182Z,101901.56
2023-02-15T14:37:12.864Z,101890.63
2023-02-15T14:39:46.372Z,101890.94
2023-02-15T14:42:13.896Z,101892.03
2023-02-15T14:44:44.650Z,101897.06
2023-02-15T14:47:16.572Z,101893.16
2023-02-15T14:49:44.161Z,101888.97
2023-02-15T14:52:12.945Z,101897.38
2023-02-15T14:54:40.535Z,101896.22
2023-02-15T14:57:08.047Z,101902.97
2023-02-15T14:59:38.645Z,101905.22
2023-02-15T15:02:09.279Z,101902.97
2023-02-15T15:04:39.930Z,101897.91
2023-02-15T15:07:10.397Z,101892.06
2023-02-15T15:09:39.440Z,101897.66
2023-02-15T15:12:09.776Z,101896.25
2023-02-15T15:14:37.452Z,101897.09
2023-02-15T15:17:06.164Z,101894.03
2023-02-15T15:19:50.884Z,101892.38
2023-02-15T15:22:22.445Z,101891.56
2023-02-15T15:24:50.823Z,101898.28
2023-02-15T15:27:21.245Z,101901.13
2023-02-15T15:29:48.418Z,101900.03
2023-02-15T15:32:20.240Z,101907.31
2023-02-15T15:34:47.776Z,101909.03
2023-02-15T15:37:17.978Z,101902.88
2023-02-15T15:39:45.533Z,101909.34
2023-02-15T15:42:17.262Z,101905.44
2023-02-15T15:44:53.057Z,101913.84
2023-02-15T15:47:23.396Z,101904.34
2023-02-15T15:49:50.724Z,101906.91
2023-02-15T15:52:20.357Z,101905.25
2023-02-15T15:54:51.737Z,101914.50
2023-02-15T15:57:21.890Z,101917.28
2023-02-15T15:59:49.699Z,101921.78
2023-02-15T16:02:19.018Z,101912.53
2023-02-15T16:04:48.476Z,101915.34
2023-02-15T16:07:18.667Z,101916.19
2023-02-15T16:09:49.155Z,101917.06
2023-02-15T16:12:19.131Z,101913.41
2023-02-15T16:14:48.770Z,101910.56
2023-02-15T16:17:19.315Z,101910.88
2023-02-15T16:19:46.642Z,101920.09
2023-02-15T16:22:17.634Z,101920.09
2023-02-15T16:24:47.834Z,101920.41
2023-02-15T16:27:20.912Z,101918.41
2023-02-15T16:29:48.102Z,101927.66
2023-02-15T16:32:18.955Z,101921.47
2023-02-15T16:34:49.388Z,101918.44
2023-02-15T16:37:17.409Z,101925.16
2023-02-15T16:39:45.558Z,101928.22
2023-02-15T16:42:13.636Z,101917.31
2023-02-15T16:44:41.793Z,101915.59
2023-02-15T16:47:16.543Z,101926.81
2023-02-15T16:49:46.194Z,101915.00
2023-02-15T16:52:17.215Z,101921.72
2023-02-15T16:54:44.577Z,101919.19
2023-02-15T16:57:15.007Z,101911.34
2023-02-15T16:59:46.482Z,101921.13
2023-02-15T17:02:37.286Z,101918.59
2023-02-15T17:05:08.266Z,101923.94
2023-02-15T17:07:39.921Z,101918.31
2023-02-15T17:10:26.793Z,101916.06
2023-02-15T17:12:58.162Z,101913.81
2023-02-15T17:15:28.240Z,101919.16
2023-02-15T17:17:57.503Z,101914.38
2023-02-15T17:20:25.276Z,101916.03
2023-02-15T17:22:53.282Z,101911.81
2023-02-15T17:25:22.643Z,101915.75
2023-02-15T17:27:52.813Z,101914.63
2023-02-15T17:30:26.123Z,101917.44
2023-02-15T17:33:34.289Z,101908.75
2023-02-15T17:36:04.501Z,101918.56
2023-02-15T17:38:31.780Z,101918.03
2023-02-15T17:40:59.612Z,101913.81
2023-02-15T17:43:29.377Z,101920.84
2023-02-15T17:45:58.503Z,101917.19
2023-02-15T17:48:32.098Z,101910.16
2023-02-15T17:51:00.272Z,101909.91
2023-02-15T17:53:27.595Z,101914.97
2023-02-15T17:55:54.944Z,101919.19
2023-02-15T17:58:23.505Z,101917.25
2023-02-15T18:00:56.001Z,101914.19
2023-02-15T18:03:28.107Z,101919.25
2023-02-15T18:05:58.708Z,101927.69
2023-02-15T18:08:30.959Z,101917.00
2023-02-15T18:11:01.849Z,101919.25
2023-02-15T18:13:29.202Z,101939.44
2023-02-15T18:15:57.117Z,101931.03
2023-02-15T18:18:25.036Z,101930.19
2023-02-15T18:20:52.483Z,101926.53
2023-02-15T18:23:19.719Z,101934.13
2023-02-15T18:25:47.350Z,101937.22
2023-02-15T18:28:15.038Z,101934.13
2023-02-15T18:30:44.573Z,101933.84
2023-02-15T18:33:20.580Z,101927.97
2023-02-15T18:35:50.450Z,101938.91
2023-02-15T18:38:17.736Z,101930.75
2023-02-15T18:40:45.100Z,101936.38
2023-02-15T18:43:13.764Z,101927.69
2023-02-15T18:45:42.120Z,101938.66
2023-02-15T18:48:10.604Z,101929.91
2023-02-15T18:50:39.186Z,101925.72
2023-02-15T18:53:07.189Z,101928.25
2023-02-15T18:55:35.863Z,101925.72
2023-02-15T18:58:03.140Z,101926.81
2023-02-15T19:00:33.773Z,101934.69
2023-02-15T19:03:02.617Z,101938.06
2023-02-15T19:05:31.677Z,101927.97
2023-02-15T19:08:01.459Z,101936.41
2023-02-15T19:10:31.514Z,101937.50
2023-02-15T19:13:01.134Z,101939.47
2023-02-15T19:15:33.097Z,101940.31
2023-02-15T19:18:03.142Z,101934.41
2023-02-15T19:20:33.244Z,101934.97
2023-02-15T19:23:02.592Z,101935.81
2023-02-15T19:25:31.973Z,101936.34
2023-02-15T19:27:59.782Z,101939.75
2023-02-15T19:30:30.856Z,101948.19
2023-02-15T19:32:59.933Z,101954.63
2023-02-15T19:35:30.821Z,101954.34
2023-02-15T19:38:00.474Z,101952.38
2023-02-15T19:40:30.684Z,101964.47
2023-02-15T19:42:59.613Z,101965.28
2023-02-15T19:45:28.586Z,101966.13
2023-02-15T19:47:57.168Z,101972.88
2023-02-15T19:50:26.568Z,101968.94
2023-02-15T19:52:54.737Z,101963.88
2023-02-15T19:55:24.902Z,101963.88
2023-02-15T19:57:53.264Z,101952.94
2023-02-15T20:00:23.753Z,101964.44
2023-02-15T20:02:52.722Z,101964.16
2023-02-15T20:05:21.883Z,101973.41
2023-02-15T20:07:51.547Z,101971.16
2023-02-15T20:10:22.854Z,101968.66
2023-02-15T20:12:52.832Z,101973.69
2023-02-15T20:15:23.069Z,101970.03
2023-02-15T20:17:51.607Z,101976.19
2023-02-15T20:20:20.484Z,101964.41
2023-02-15T20:22:50.711Z,101963.88
2023-02-15T20:25:22.012Z,101977.59
2023-02-15T20:27:51.168Z,101978.13
2023-02-15T20:30:21.325Z,101973.38
2023-02-15T20:32:50.750Z,101966.66
2023-02-15T20:35:20.218Z,101971.69
2023-02-15T20:37:50.306Z,101971.13
2023-02-15T20:40:21.343Z,101975.34
2023-02-15T20:42:49.894Z,101976.72
2023-02-15T20:45:21.744Z,101978.13
2023-02-15T20:47:51.270Z,101972.53
2023-02-15T20:50:22.252Z,101976.16
2023-02-15T20:52:52.373Z,101977.81
2023-02-15T20:55:22.956Z,101975.88
2023-02-15T20:57:52.870Z,101967.75
2023-02-15T21:00:25.482Z,101973.34
2023-02-15T21:02:57.183Z,101966.91
2023-02-15T21:05:28.228Z,101982.03
2023-02-15T21:07:57.765Z,101968.28
2023-02-15T21:10:29.037Z,101975.25
2023-02-15T21:12:59.830Z,101970.75
2023-02-15T21:15:31.649Z,101969.91
2023-02-15T21:18:02.050Z,101962.63
2023-02-15T21:20:31.168Z,101959.28
2023-02-15T21:23:02.978Z,101967.69
2023-02-15T21:25:34.514Z,101965.41
2023-02-15T21:28:02.720Z,101961.50
2023-02-15T21:30:31.023Z,101964.03
2023-02-15T21:32:59.290Z,101950.56
2023-02-15T21:35:27.902Z,101957.03
2023-02-15T21:37:56.333Z,101958.13
2023-02-15T21:40:30.407Z,101961.78
2023-02-15T21:43:02.764Z,101958.13
2023-02-15T21:45:35.197Z,101956.69
2023-02-15T21:48:03.452Z,101961.19
2023-02-15T21:50:34.692Z,101964.28
2023-02-15T21:53:03.855Z,101954.19
2023-02-15T21:55:32.472Z,101951.91
2023-02-15T21:58:00.585Z,101950.81
2023-02-15T22:00:29.782Z,101958.09
2023-02-15T22:02:59.968Z,101958.09
2023-02-15T22:05:29.861Z,101963.13
2023-02-15T22:07:57.777Z,101963.97
2023-02-15T22:10:29.172Z,101957.53
2023-02-15T22:12:56.725Z,101968.44
2023-02-15T22:15:25.012Z,101961.16
2023-02-15T22:17:54.143Z,101958.66
2023-02-15T22:20:22.899Z,101956.38
2023-02-15T22:22:51.025Z,101955.84
2023-02-15T22:25:20.040Z,101961.16
2023-02-15T22:27:48.308Z,101963.13
2023-02-15T22:30:19.484Z,101963.13
2023-02-15T22:32:46.935Z,101964.50
2023-02-15T22:35:17.249Z,101969.81
2023-02-15T22:37:44.583Z,101977.13
2023-02-15T22:40:14.730Z,101971.50
2023-02-15T22:42:42.837Z,101974.31
2023-02-15T22:45:15.826Z,101973.16
2023-02-15T22:47:42.827Z,101979.91
2023-02-15T22:50:12.993Z,101971.78
2023-02-15T22:52:40.178Z,101976.53
2023-02-15T22:55:07.343Z,101970.94
2023-02-15T22:57:34.352Z,101961.97
2023-02-15T23:00:01.724Z,101969.25
2023-02-15T23:02:28.658Z,101971.19
2023-02-15T23:04:55.685Z,101970.38
2023-02-15T23:07:23.577Z,101970.91
2023-02-15T23:09:51.555Z,101976.53
2023-02-15T23:12:20.019Z,101981.00
2023-02-15T23:14:47.238Z,101984.06
2023-02-15T23:17:14.233Z,101975.41
2023-02-15T23:19:41.385Z,101968.09
2023-02-15T23:22:11.541Z,101972.00
2023-02-15T23:24:38.805Z,101963.06
2023-02-15T23:27:08.798Z,101961.94
2023-02-15T23:29:35.768Z,101969.50
2023-02-15T23:32:02.748Z,101963.63
2023-02-15T23:34:30.569Z,101963.31
2023-02-15T23:36:57.687Z,101966.41
2023-02-15T23:39:29.202Z,101973.38
2023-02-15T23:41:56.287Z,101965.84
2023-02-15T23:44:23.292Z,101982.94
2023-02-15T23:46:50.479Z,101973.38
2023-02-15T23:49:19.772Z,101986.84
2023-02-15T23:51:47.927Z,101981.25
2023-02-15T23:54:15.952Z,101980.91
2023-02-15T23:56:43.520Z,101987.09
2023-02-15T23:59:13.599Z,101987.09
